Time;durP1;ratioP1;P1;durP2;ratioP2;P2;SDS_P1;SDS_P2;PMS_P1;PMS_P2;Temp;Humidity;BMP_temperature;BMP_pressure;BME280_temperature;BME280_humidity;BME280_pressure;Samples;Min_cycle;Max_cycle;Signal;HPM_P1;HPM_P2
2022/07/10 00:01:49;;;;;;;;;;;16.50;99.90;;;;;;5086186;28;20322;-86
2022/07/10 00:04:16;;;;;;;;;;;16.50;99.90;;;;;;5086150;28;20179;-86
2022/07/10 00:06:46;;;;;;;;;;;16.50;99.90;;;;;;5086251;28;20235;-87
2022/07/10 00:09:13;;;;;;;;;;;16.40;99.90;;;;;;5085839;28;19927;-86
2022/07/10 00:11:41;;;;;;;;;;;16.40;99.90;;;;;;5085923;28;19944;-85
2022/07/10 00:14:08;;;;;;;;;;;16.40;99.90;;;;;;5085667;28;19921;-86
2022/07/10 00:16:35;;;;;;;;;;;16.30;99.90;;;;;;5086013;28;20370;-86
2022/07/10 00:19:01;;;;;;;;;;;16.30;99.90;;;;;;5086091;28;19940;-85
2022/07/10 00:21:28;;;;;;;;;;;16.30;99.90;;;;;;5085866;28;19952;-86
2022/07/10 00:23:55;;;;;;;;;;;16.20;99.90;;;;;;5085376;28;19927;-86
2022/07/10 00:26:21;;;;;;;;;;;16.20;99.90;;;;;;5086181;28;19952;-87
2022/07/10 00:28:50;;;;;;;;;;;16.10;99.90;;;;;;5081225;28;19943;-88
2022/07/10 00:31:17;;;;;;;;;;;16.00;99.90;;;;;;5085850;28;19944;-87
2022/07/10 00:33:43;;;;;;;;;;;16.00;99.90;;;;;;5085318;28;19959;-86
2022/07/10 00:36:10;;;;;;;;;;;15.90;99.90;;;;;;5065630;28;19920;-87
2022/07/10 00:38:36;;;;;;;;;;;16.00;99.90;;;;;;5065734;28;20258;-86
2022/07/10 00:41:03;;;;;;;;;;;15.90;99.90;;;;;;5065466;28;19945;-86
2022/07/10 00:43:30;;;;;;;;;;;15.90;99.90;;;;;;5065563;28;19920;-86
2022/07/10 00:45:58;;;;;;;;;;;15.90;99.90;;;;;;5079803;28;19944;-86
2022/07/10 00:48:25;;;;;;;;;;;15.90;99.90;;;;;;5085369;28;19947;-86
2022/07/10 00:50:52;;;;;;;;;;;15.90;99.90;;;;;;5085377;28;19999;-86
2022/07/10 00:53:19;;;;;;;;;;;15.90;99.90;;;;;;5084564;28;19921;-86
2022/07/10 00:55:46;;;;;;;;;;;15.80;99.90;;;;;;5088916;28;19947;-86
2022/07/10 00:58:13;;;;;;;;;;;15.80;99.90;;;;;;5086578;28;19950;-88
2022/07/10 01:00:40;;;;;;;;;;;15.80;99.90;;;;;;5086526;28;19920;-88
2022/07/10 01:03:08;;;;;;;;;;;15.80;99.90;;;;;;5086056;28;19928;-86
2022/07/10 01:05:35;;;;;;;;;;;15.80;99.90;;;;;;5085730;28;19927;-88
2022/07/10 01:08:02;;;;;;;;;;;15.80;99.90;;;;;;5085453;28;20170;-87
2022/07/10 01:10:29;;;;;;;;;;;15.70;99.90;;;;;;5085407;28;19959;-86
2022/07/10 01:12:56;;;;;;;;;;;15.70;99.90;;;;;;5085111;28;19920;-86
2022/07/10 01:15:22;;;;;;;;;;;15.70;99.90;;;;;;5085177;28;19951;-87
2022/07/10 01:17:52;;;;;;;;;;;15.60;99.90;;;;;;5085389;28;19984;-87
2022/07/10 01:20:21;;;;;;;;;;;15.60;99.90;;;;;;5085001;28;19921;-86
2022/07/10 01:22:49;;;;;;;;;;;15.60;99.90;;;;;;5085143;28;19988;-86
2022/07/10 01:25:15;;;;;;;;;;;15.60;99.90;;;;;;5085245;28;19951;-87
2022/07/10 01:27:43;;;;;;;;;;;15.50;99.90;;;;;;5085032;28;19920;-86
2022/07/10 01:30:13;;;;;;;;;;;15.50;99.90;;;;;;5085088;28;19927;-86
2022/07/10 01:32:40;;;;;;;;;;;15.40;99.90;;;;;;5084608;28;19920;-86
2022/07/10 01:35:07;;;;;;;;;;;15.40;99.90;;;;;;5085020;28;20215;-87
2022/07/10 01:37:34;;;;;;;;;;;15.30;99.90;;;;;;5084850;28;19979;-87
2022/07/10 01:40:03;;;;;;;;;;;15.30;99.90;;;;;;5084905;28;19928;-87
2022/07/10 01:42:30;;;;;;;;;;;15.30;99.90;;;;;;5084800;28;19987;-87
2022/07/10 01:44:56;;;;;;;;;;;15.30;99.90;;;;;;5085086;28;19928;-86
2022/07/10 01:47:25;;;;;;;;;;;15.30;99.90;;;;;;5085067;28;19927;-86
2022/07/10 01:49:53;;;;;;;;;;;15.30;99.90;;;;;;5085072;28;19920;-87
2022/07/10 01:52:20;;;;;;;;;;;15.20;99.90;;;;;;5084425;28;19983;-87
2022/07/10 01:54:46;;;;;;;;;;;15.30;99.90;;;;;;5085523;28;19951;-88
2022/07/10 01:57:15;;;;;;;;;;;15.20;99.90;;;;;;5085042;28;19928;-86
2022/07/10 01:59:43;;;;;;;;;;;15.20;99.90;;;;;;5084054;28;19921;-88
2022/07/10 02:02:09;;;;;;;;;;;15.10;99.90;;;;;;5084515;28;19920;-87
2022/07/10 02:04:41;;;;;;;;;;;15.10;99.90;;;;;;5084758;28;20003;-87
2022/07/10 02:07:08;;;;;;;;;;;15.10;99.90;;;;;;5084494;28;19983;-86
2022/07/10 02:09:34;;;;;;;;;;;15.10;99.90;;;;;;5084814;28;19944;-87
2022/07/10 02:12:01;;;;;;;;;;;15.00;99.90;;;;;;5084809;28;19928;-88
2022/07/10 02:14:29;;;;;;;;;;;15.00;99.90;;;;;;5084466;28;19944;-86
2022/07/10 02:16:56;;;;;;;;;;;15.00;99.90;;;;;;5084489;28;20203;-86
2022/07/10 02:19:23;;;;;;;;;;;15.00;99.90;;;;;;5084588;28;19921;-87
2022/07/10 02:21:50;;;;;;;;;;;15.00;99.90;;;;;;5086659;28;19927;-87
2022/07/10 02:24:17;;;;;;;;;;;15.00;99.90;;;;;;5084360;28;19920;-87
2022/07/10 02:26:44;;;;;;;;;;;15.00;99.90;;;;;;5084525;28;19921;-87
2022/07/10 02:29:11;;;;;;;;;;;14.90;99.90;;;;;;5084175;28;19952;-86
2022/07/10 02:31:40;;;;;;;;;;;14.90;99.90;;;;;;5084207;28;19944;-88
2022/07/10 02:34:07;;;;;;;;;;;14.80;99.90;;;;;;5084546;28;20119;-87
2022/07/10 02:36:34;;;;;;;;;;;14.80;99.90;;;;;;5084141;28;19944;-86
2022/07/10 02:39:00;;;;;;;;;;;14.90;99.90;;;;;;5083967;28;19940;-86
2022/07/10 02:41:27;;;;;;;;;;;14.90;99.90;;;;;;5083782;28;19921;-87
2022/07/10 02:43:54;;;;;;;;;;;14.80;99.90;;;;;;5083609;28;20443;-86
2022/07/10 02:46:20;;;;;;;;;;;14.80;99.90;;;;;;5084080;28;19920;-87
2022/07/10 02:48:49;;;;;;;;;;;14.80;99.90;;;;;;5083359;28;19966;-87
2022/07/10 02:51:15;;;;;;;;;;;14.80;99.90;;;;;;5083134;28;19951;-87
2022/07/10 02:53:42;;;;;;;;;;;14.80;99.90;;;;;;5083172;28;19920;-87
2022/07/10 02:56:09;;;;;;;;;;;14.80;99.90;;;;;;5083322;28;20258;-87
2022/07/10 02:58:36;;;;;;;;;;;14.80;99.90;;;;;;5082978;28;19951;-87
2022/07/10 03:01:02;;;;;;;;;;;14.70;99.90;;;;;;5083086;28;19920;-87
2022/07/10 03:03:29;;;;;;;;;;;14.70;99.90;;;;;;5083068;28;19920;-87
2022/07/10 03:05:57;;;;;;;;;;;14.70;99.90;;;;;;5083289;28;19921;-87
2022/07/10 03:08:24;;;;;;;;;;;14.70;99.90;;;;;;5083177;28;20239;-87
2022/07/10 03:10:51;;;;;;;;;;;14.70;99.90;;;;;;5082986;28;20239;-87
2022/07/10 03:13:17;;;;;;;;;;;14.70;99.90;;;;;;5082843;28;19920;-87
2022/07/10 03:15:44;;;;;;;;;;;14.70;99.90;;;;;;5084015;28;20100;-87
2022/07/10 03:18:11;;;;;;;;;;;14.70;99.90;;;;;;5087278;28;20227;-87
2022/07/10 03:20:38;;;;;;;;;;;14.60;99.90;;;;;;5089523;28;19958;-88
2022/07/10 03:23:06;;;;;;;;;;;14.70;99.90;;;;;;5089371;28;19947;-88
2022/07/10 03:25:33;;;;;;;;;;;14.70;99.90;;;;;;5089208;28;19948;-86
2022/07/10 03:28:00;;;;;;;;;;;14.70;99.90;;;;;;5087718;28;19940;-88
2022/07/10 03:30:27;;;;;;;;;;;14.70;99.90;;;;;;5087014;28;20152;-87
2022/07/10 03:32:53;;;;;;;;;;;14.60;99.90;;;;;;5087419;28;20227;-87
2022/07/10 03:35:20;;;;;;;;;;;14.60;99.90;;;;;;5087361;28;19920;-87
2022/07/10 03:37:47;;;;;;;;;;;14.60;99.90;;;;;;5087570;28;19925;-88
2022/07/10 03:40:15;;;;;;;;;;;14.60;99.90;;;;;;5087682;28;19928;-89
2022/07/10 03:42:42;;;;;;;;;;;14.60;99.90;;;;;;5087987;28;19927;-89
2022/07/10 03:45:09;;;;;;;;;;;14.60;99.90;;;;;;5087112;28;19931;-87
2022/07/10 03:47:36;;;;;;;;;;;14.60;99.90;;;;;;5087853;28;19921;-88
2022/07/10 03:50:02;;;;;;;;;;;14.60;99.90;;;;;;5087647;28;19956;-87
2022/07/10 03:52:29;;;;;;;;;;;14.60;99.90;;;;;;5087053;28;19924;-88
2022/07/10 03:54:58;;;;;;;;;;;14.60;99.90;;;;;;5086320;28;22266;-88
2022/07/10 04:00:11;;;;;;;;;;;14.50;99.90;;;;;;5087580;28;19928;-89
2022/07/10 04:02:38;;;;;;;;;;;14.50;99.90;;;;;;5086958;28;20258;-87
2022/07/10 04:05:06;;;;;;;;;;;14.50;99.90;;;;;;5087342;28;19920;-89
2022/07/10 04:07:32;;;;;;;;;;;14.40;99.90;;;;;;5086750;28;19920;-88
2022/07/10 04:09:59;;;;;;;;;;;14.40;99.90;;;;;;5087408;28;19946;-87
2022/07/10 04:12:27;;;;;;;;;;;14.40;99.90;;;;;;5086677;28;19928;-88
2022/07/10 04:14:54;;;;;;;;;;;14.40;99.90;;;;;;5087093;28;20168;-87
2022/07/10 04:17:21;;;;;;;;;;;14.40;99.90;;;;;;5086944;28;19921;-88
2022/07/10 04:19:48;;;;;;;;;;;14.30;99.90;;;;;;5087813;28;19928;-87
2022/07/10 04:22:14;;;;;;;;;;;14.30;99.90;;;;;;5087352;28;19928;-88
2022/07/10 04:24:41;;;;;;;;;;;14.30;99.90;;;;;;5087014;28;19962;-88
2022/07/10 04:27:08;;;;;;;;;;;14.30;99.90;;;;;;5087515;28;19920;-88
2022/07/10 04:29:36;;;;;;;;;;;14.10;99.90;;;;;;5087219;28;19920;-89
2022/07/10 04:32:03;;;;;;;;;;;14.10;99.90;;;;;;5087047;28;20235;-86
2022/07/10 04:34:30;;;;;;;;;;;14.00;99.90;;;;;;5086361;28;19943;-87
2022/07/10 04:36:56;;;;;;;;;;;14.00;99.90;;;;;;5086316;28;19955;-88
2022/07/10 04:39:23;;;;;;;;;;;14.00;99.90;;;;;;5086262;28;20330;-88
2022/07/10 04:41:50;;;;;;;;;;;14.00;99.90;;;;;;5086343;28;20128;-87
2022/07/10 04:44:17;;;;;;;;;;;14.00;99.90;;;;;;5086152;28;19920;-88
2022/07/10 04:46:45;;;;;;;;;;;14.00;99.90;;;;;;5086375;28;19920;-87
2022/07/10 04:49:12;;;;;;;;;;;14.10;99.90;;;;;;5065856;28;19921;-88
2022/07/10 04:51:39;;;;;;;;;;;14.20;99.90;;;;;;5065614;28;19925;-87
2022/07/10 04:54:05;;;;;;;;;;;14.20;99.90;;;;;;5065637;28;19941;-87
2022/07/10 04:56:32;;;;;;;;;;;14.30;99.90;;;;;;5065762;28;19921;-87
2022/07/10 04:58:59;;;;;;;;;;;14.50;99.90;;;;;;5065768;28;19921;-87
2022/07/10 05:01:26;;;;;;;;;;;14.60;99.90;;;;;;5069689;28;19930;-88
2022/07/10 05:03:54;;;;;;;;;;;14.70;99.90;;;;;;5085437;28;19928;-88
2022/07/10 05:06:21;;;;;;;;;;;14.80;99.90;;;;;;5085426;28;19944;-87
2022/07/10 05:08:48;;;;;;;;;;;15.00;99.90;;;;;;5085493;28;20104;-88
2022/07/10 05:11:15;;;;;;;;;;;15.00;99.90;;;;;;5085436;28;19991;-86
2022/07/10 05:13:44;;;;;;;;;;;15.00;99.90;;;;;;5085387;28;19962;-88
2022/07/10 05:16:11;;;;;;;;;;;15.00;99.90;;;;;;5085395;28;19920;-87
2022/07/10 05:18:37;;;;;;;;;;;14.90;99.90;;;;;;5085210;28;19943;-86
2022/07/10 05:21:06;;;;;;;;;;;14.80;99.90;;;;;;5085109;28;20235;-87
2022/07/10 05:23:33;;;;;;;;;;;14.70;99.90;;;;;;5084954;28;19928;-86
2022/07/10 05:25:59;;;;;;;;;;;14.70;99.90;;;;;;5085695;28;20172;-86
2022/07/10 05:28:26;;;;;;;;;;;14.70;99.90;;;;;;5085136;28;20238;-87
2022/07/10 05:30:53;;;;;;;;;;;14.70;99.90;;;;;;5081379;28;19994;-86
2022/07/10 05:33:20;;;;;;;;;;;14.80;99.90;;;;;;5065073;28;19959;-90
2022/07/10 05:35:49;;;;;;;;;;;14.80;99.90;;;;;;5080910;28;19927;-92
2022/07/10 05:38:23;;;;;;;;;;;14.80;99.90;;;;;;5097694;28;19958;-93
2022/07/10 05:43:23;;;;;;;;;;;14.60;99.90;;;;;;5100528;28;19920;-68
2022/07/10 05:45:50;;;;;;;;;;;14.60;99.90;;;;;;5103773;28;19920;-68
2022/07/10 05:48:16;;;;;;;;;;;14.70;99.90;;;;;;5104214;28;19920;-68
2022/07/10 05:50:43;;;;;;;;;;;14.80;99.90;;;;;;5104159;28;19927;-68
2022/07/10 05:53:10;;;;;;;;;;;14.60;99.90;;;;;;5103298;28;20231;-68
2022/07/10 05:55:38;;;;;;;;;;;14.70;99.90;;;;;;5103845;28;19926;-68
2022/07/10 05:58:04;;;;;;;;;;;14.80;99.90;;;;;;5104208;28;19977;-68
2022/07/10 06:00:31;;;;;;;;;;;14.90;99.90;;;;;;5103619;28;19920;-67
2022/07/10 06:02:58;;;;;;;;;;;14.90;99.90;;;;;;5103194;28;19920;-68
2022/07/10 06:05:24;;;;;;;;;;;15.00;99.90;;;;;;5104154;28;19988;-68
2022/07/10 06:07:54;;;;;;;;;;;15.00;99.90;;;;;;5104261;28;19920;-68
2022/07/10 06:10:20;;;;;;;;;;;14.90;99.90;;;;;;5104088;28;19954;-68
2022/07/10 06:12:48;;;;;;;;;;;14.90;99.90;;;;;;5103387;28;19921;-69
2022/07/10 06:15:15;;;;;;;;;;;14.90;99.90;;;;;;5103603;28;19959;-68
2022/07/10 06:17:42;;;;;;;;;;;14.90;99.90;;;;;;5104079;28;19963;-68
2022/07/10 06:20:09;;;;;;;;;;;15.00;99.90;;;;;;5103886;28;19927;-68
2022/07/10 06:22:35;;;;;;;;;;;15.00;99.90;;;;;;5103026;28;19983;-68
2022/07/10 06:25:04;;;;;;;;;;;15.00;99.90;;;;;;5103438;28;19965;-68
2022/07/10 06:27:31;;;;;;;;;;;14.90;99.90;;;;;;5083584;28;20115;-68
2022/07/10 06:29:59;;;;;;;;;;;14.90;99.90;;;;;;5099833;28;19991;-68
2022/07/10 06:32:26;;;;;;;;;;;14.80;99.90;;;;;;5102733;28;19991;-68
2022/07/10 06:34:53;;;;;;;;;;;14.90;99.90;;;;;;5103649;28;20123;-68
2022/07/10 06:37:19;;;;;;;;;;;15.00;99.90;;;;;;5103325;28;20211;-68
2022/07/10 06:39:47;;;;;;;;;;;15.10;99.90;;;;;;5103167;28;20111;-68
2022/07/10 06:42:14;;;;;;;;;;;15.30;99.90;;;;;;5102731;28;20226;-68
2022/07/10 06:44:40;;;;;;;;;;;15.30;99.90;;;;;;5103499;28;19951;-67
2022/07/10 06:49:53;;;;;;;;;;;15.50;99.90;;;;;;5103403;28;19942;-68
2022/07/10 06:52:20;;;;;;;;;;;15.50;99.90;;;;;;5106252;28;19920;-68
2022/07/10 06:54:47;;;;;;;;;;;15.50;99.90;;;;;;5106968;28;20258;-67
2022/07/10 06:57:14;;;;;;;;;;;15.60;99.90;;;;;;5107240;28;19920;-67
2022/07/10 06:59:41;;;;;;;;;;;15.50;99.90;;;;;;5106909;28;20230;-67
2022/07/10 07:02:09;;;;;;;;;;;15.60;99.90;;;;;;5107207;28;19987;-67
2022/07/10 07:04:35;;;;;;;;;;;15.70;99.90;;;;;;5106790;28;20238;-67
2022/07/10 07:07:02;;;;;;;;;;;15.60;99.90;;;;;;5107041;28;19951;-67
2022/07/10 07:09:29;;;;;;;;;;;15.50;99.90;;;;;;5107219;28;19924;-67
2022/07/10 07:11:56;;;;;;;;;;;15.50;99.90;;;;;;5107088;28;19927;-67
2022/07/10 07:14:22;;;;;;;;;;;15.50;99.90;;;;;;5106618;28;19958;-67
2022/07/10 07:16:58;;;;;;;;;;;15.50;99.90;;;;;;5107068;28;19962;-67
2022/07/10 07:19:31;;;;;;;;;;;15.50;99.90;;;;;;5107046;28;19957;-67
2022/07/10 07:24:43;;;;;;;;;;;15.70;99.90;;;;;;5106641;28;19974;-67
2022/07/10 07:27:09;;;;;;;;;;;15.70;99.90;;;;;;5106958;28;19920;-67
2022/07/10 07:29:36;;;;;;;;;;;15.60;99.90;;;;;;5106500;28;19951;-67
2022/07/10 07:32:03;;;;;;;;;;;15.70;99.90;;;;;;5106824;28;19978;-67
2022/07/10 07:34:31;;;;;;;;;;;15.70;99.90;;;;;;5106064;28;19959;-67
2022/07/10 07:36:58;;;;;;;;;;;15.70;99.90;;;;;;5106364;28;19920;-67
2022/07/10 07:39:25;;;;;;;;;;;15.80;99.90;;;;;;5104094;28;19920;-67
2022/07/10 07:41:51;;;;;;;;;;;15.80;99.90;;;;;;5105691;28;20112;-67
2022/07/10 07:44:18;;;;;;;;;;;15.70;99.90;;;;;;5105455;28;20234;-67
2022/07/10 07:46:45;;;;;;;;;;;15.70;99.90;;;;;;5104414;28;19920;-67
2022/07/10 07:49:11;;;;;;;;;;;15.80;99.90;;;;;;5105438;28;19920;-67
2022/07/10 07:51:39;;;;;;;;;;;15.90;99.90;;;;;;5106108;28;19965;-67
2022/07/10 07:54:06;;;;;;;;;;;15.90;99.90;;;;;;5105718;28;19927;-67
2022/07/10 07:56:33;;;;;;;;;;;15.90;99.90;;;;;;5105963;28;19927;-66
2022/07/10 07:58:59;;;;;;;;;;;15.90;99.90;;;;;;5105906;28;19952;-67
2022/07/10 08:01:26;;;;;;;;;;;16.00;99.90;;;;;;5105679;28;20003;-67
2022/07/10 08:03:53;;;;;;;;;;;16.10;99.90;;;;;;5105153;28;19927;-67
2022/07/10 08:06:20;;;;;;;;;;;16.20;99.90;;;;;;5105829;28;19924;-66
2022/07/10 08:08:48;;;;;;;;;;;16.10;99.90;;;;;;5104099;28;20179;-67
2022/07/10 08:11:14;;;;;;;;;;;16.20;99.90;;;;;;5105825;28;20163;-67
2022/07/10 08:13:42;;;;;;;;;;;16.20;99.90;;;;;;5104854;28;20344;-67
2022/07/10 08:16:09;;;;;;;;;;;16.20;99.90;;;;;;5105861;28;20272;-66
2022/07/10 08:18:36;;;;;;;;;;;16.20;99.90;;;;;;5105212;28;19924;-66
2022/07/10 08:21:03;;;;;;;;;;;16.20;99.90;;;;;;5105405;28;19926;-67
2022/07/10 08:23:29;;;;;;;;;;;16.10;99.90;;;;;;5104936;28;20275;-66
2022/07/10 08:25:57;;;;;;;;;;;16.10;99.90;;;;;;5101370;28;19920;-67
2022/07/10 08:28:24;;;;;;;;;;;16.10;99.90;;;;;;5105532;28;19959;-67
2022/07/10 08:30:51;;;;;;;;;;;16.10;99.90;;;;;;5104700;28;19920;-67
2022/07/10 08:33:17;;;;;;;;;;;16.20;99.90;;;;;;5104711;28;19947;-67
2022/07/10 08:35:44;;;;;;;;;;;16.10;99.90;;;;;;5104558;28;19943;-67
2022/07/10 08:38:10;;;;;;;;;;;16.10;99.90;;;;;;5104953;28;19920;-67
2022/07/10 08:40:37;;;;;;;;;;;16.10;99.90;;;;;;5104630;28;19927;-67
2022/07/10 08:43:06;;;;;;;;;;;16.10;99.90;;;;;;5104198;28;19991;-67
2022/07/10 08:45:33;;;;;;;;;;;16.10;99.90;;;;;;5104520;28;20275;-67
2022/07/10 08:48:02;;;;;;;;;;;16.10;99.90;;;;;;5104634;28;20233;-66
2022/07/10 08:50:29;;;;;;;;;;;16.20;99.90;;;;;;5100581;28;20216;-66
2022/07/10 08:53:01;;;;;;;;;;;16.20;99.90;;;;;;5103603;28;19962;-66
2022/07/10 08:55:27;;;;;;;;;;;16.20;99.90;;;;;;5104498;28;19920;-66
2022/07/10 08:57:55;;;;;;;;;;;16.30;99.90;;;;;;5104527;28;19971;-66
2022/07/10 09:00:23;;;;;;;;;;;16.30;99.90;;;;;;5104637;28;19920;-67
2022/07/10 09:02:49;;;;;;;;;;;16.40;99.90;;;;;;5103545;28;19948;-67
2022/07/10 09:05:16;;;;;;;;;;;16.40;99.90;;;;;;5098378;28;19928;-67
2022/07/10 09:07:43;;;;;;;;;;;16.50;99.90;;;;;;5094567;28;19958;-67
2022/07/10 09:10:11;;;;;;;;;;;16.60;99.90;;;;;;5099590;28;19955;-68
2022/07/10 09:12:51;;;;;;;;;;;16.50;99.90;;;;;;5087416;28;19943;-68
2022/07/10 09:15:19;;;;;;;;;;;16.60;99.90;;;;;;5083551;28;20167;-68
2022/07/10 09:17:57;;;;;;;;;;;16.60;99.90;;;;;;5089444;28;19955;-67
2022/07/10 09:20:33;;;;;;;;;;;16.60;99.90;;;;;;5104639;28;19920;-67
2022/07/10 09:23:09;;;;;;;;;;;16.60;99.90;;;;;;5103306;28;19983;-68
2022/07/10 09:25:36;;;;;;;;;;;16.70;99.90;;;;;;5104017;28;19924;-67
2022/07/10 09:28:06;;;;;;;;;;;16.80;99.90;;;;;;5096385;28;20164;-67
2022/07/10 09:30:33;;;;;;;;;;;16.80;99.90;;;;;;5104326;28;19983;-67
2022/07/10 09:36:06;;;;;;;;;;;16.70;99.90;;;;;;5141711;27;19935;-68
2022/07/10 09:38:53;;;;;;;;;;;16.80;99.90;;;;;;5126978;28;19926;-69
2022/07/10 09:41:21;;;;;;;;;;;16.80;99.90;;;;;;5141763;28;19919;-67
2022/07/10 09:43:48;;;;;;;;;;;17.00;99.90;;;;;;5140822;28;19946;-66
2022/07/10 09:46:16;;;;;;;;;;;17.00;99.90;;;;;;5141816;28;19919;-66
2022/07/10 09:48:43;;;;;;;;;;;17.00;99.90;;;;;;5141807;27;19920;-66
2022/07/10 09:51:11;;;;;;;;;;;16.90;99.90;;;;;;5141472;28;20035;-67
2022/07/10 09:53:39;;;;;;;;;;;16.90;99.90;;;;;;5140893;28;20163;-67
2022/07/10 09:56:07;;;;;;;;;;;16.90;99.90;;;;;;5140941;28;19927;-67
2022/07/10 09:58:35;;;;;;;;;;;17.00;99.90;;;;;;5141648;27;19941;-67
2022/07/10 10:01:03;;;;;;;;;;;17.00;99.90;;;;;;5141604;27;19924;-66
2022/07/10 10:03:33;;;;;;;;;;;17.00;99.90;;;;;;5140569;28;19919;-67
2022/07/10 10:06:03;;;;;;;;;;;17.00;99.90;;;;;;5141120;27;19919;-67
2022/07/10 10:08:33;;;;;;;;;;;17.10;99.90;;;;;;5141322;28;19957;-66
2022/07/10 10:11:00;;;;;;;;;;;17.40;99.90;;;;;;5140623;28;19919;-66
2022/07/10 10:13:28;;;;;;;;;;;17.50;99.90;;;;;;5140677;28;19986;-67
2022/07/10 10:15:55;;;;;;;;;;;17.70;99.90;;;;;;5141137;28;19967;-67
2022/07/10 10:18:22;;;;;;;;;;;17.70;99.90;;;;;;5141256;27;19927;-66
2022/07/10 10:20:49;;;;;;;;;;;17.70;99.90;;;;;;5141203;27;20128;-67
2022/07/10 10:23:17;;;;;;;;;;;17.80;99.90;;;;;;5140089;27;19943;-67
2022/07/10 10:25:46;;;;;;;;;;;17.80;99.90;;;;;;5140273;28;19972;-67
2022/07/10 10:28:13;;;;;;;;;;;17.80;99.90;;;;;;5140824;27;19979;-67
2022/07/10 10:30:42;;;;;;;;;;;17.80;99.90;;;;;;5140012;27;19947;-67
2022/07/10 10:33:28;;;;;;;;;;;17.70;99.90;;;;;;5139389;27;20024;-66
2022/07/10 10:35:55;;;;;;;;;;;17.60;99.90;;;;;;5135657;27;19947;-67
2022/07/10 10:38:22;;;;;;;;;;;17.60;99.90;;;;;;5119326;28;19961;-66
2022/07/10 10:40:50;;;;;;;;;;;17.60;99.90;;;;;;5115264;22;19920;-69
2022/07/10 10:43:17;;;;;;;;;;;17.70;99.90;;;;;;5099118;28;19983;-69
2022/07/10 10:45:44;;;;;;;;;;;17.70;99.90;;;;;;5100323;28;19924;-68
2022/07/10 10:48:12;;;;;;;;;;;17.70;99.90;;;;;;5090960;28;20176;-69
2022/07/10 10:50:39;;;;;;;;;;;17.70;99.90;;;;;;5097141;28;19942;-69
2022/07/10 10:53:13;;;;;;;;;;;17.90;99.90;;;;;;5081588;28;19943;-69
2022/07/10 10:55:40;;;;;;;;;;;18.10;99.90;;;;;;5083154;28;19927;-69
2022/07/10 10:58:17;;;;;;;;;;;18.20;99.90;;;;;;5091988;28;19959;-69
2022/07/10 11:00:44;;;;;;;;;;;18.40;99.90;;;;;;5083655;28;19928;-69
2022/07/10 11:03:15;;;;;;;;;;;18.40;99.90;;;;;;5097071;28;20190;-69
2022/07/10 11:05:45;;;;;;;;;;;18.50;99.90;;;;;;5103743;28;19920;-69
2022/07/10 11:08:12;;;;;;;;;;;18.50;99.90;;;;;;5095761;28;19920;-69
2022/07/10 11:10:40;;;;;;;;;;;18.50;99.90;;;;;;5103256;28;19988;-68
2022/07/10 11:13:07;;;;;;;;;;;18.20;99.90;;;;;;5097100;28;19920;-69
2022/07/10 11:15:36;;;;;;;;;;;18.20;99.90;;;;;;5105001;28;19927;-69
2022/07/10 11:18:04;;;;;;;;;;;18.30;99.90;;;;;;5103292;28;20179;-68
2022/07/10 11:20:32;;;;;;;;;;;18.30;99.90;;;;;;5096109;28;19920;-69
2022/07/10 11:23:03;;;;;;;;;;;18.20;99.90;;;;;;5090005;28;19998;-68
2022/07/10 11:25:42;;;;;;;;;;;18.20;99.90;;;;;;5085162;28;19979;-69
2022/07/10 11:28:10;;;;;;;;;;;18.20;99.90;;;;;;5085552;28;19983;-69
2022/07/10 11:30:48;;;;;;;;;;;18.40;99.90;;;;;;5074234;28;19962;-69
2022/07/10 11:33:15;;;;;;;;;;;18.50;99.90;;;;;;5064930;28;19921;-69
2022/07/10 11:35:44;;;;;;;;;;;18.40;99.90;;;;;;5092179;28;19979;-71
2022/07/10 11:38:11;;;;;;;;;;;18.40;99.90;;;;;;5071190;28;19956;-69
2022/07/10 11:40:38;;;;;;;;;;;18.40;99.90;;;;;;5078649;28;19951;-68
2022/07/10 11:43:06;;;;;;;;;;;18.40;99.90;;;;;;5105150;28;19920;-69
2022/07/10 11:45:36;;;;;;;;;;;18.40;99.90;;;;;;5089544;28;19934;-69
2022/07/10 11:48:05;;;;;;;;;;;18.30;99.90;;;;;;5081720;28;19921;-70
2022/07/10 11:50:35;;;;;;;;;;;18.40;99.90;;;;;;5065344;28;19987;-70
2022/07/10 11:53:03;;;;;;;;;;;18.40;99.90;;;;;;5096761;28;19961;-70
2022/07/10 11:55:31;;;;;;;;;;;18.40;99.90;;;;;;5105305;28;19969;-70
2022/07/10 11:57:58;;;;;;;;;;;18.30;99.90;;;;;;5098011;28;19920;-68
2022/07/10 12:00:25;;;;;;;;;;;18.20;99.90;;;;;;5088234;28;19932;-69
2022/07/10 12:02:52;;;;;;;;;;;18.10;99.90;;;;;;5087899;28;19920;-69
2022/07/10 12:05:33;;;;;;;;;;;17.90;99.90;;;;;;5102199;28;19942;-68
2022/07/10 12:08:00;;;;;;;;;;;17.80;99.90;;;;;;5064997;28;19963;-69
2022/07/10 12:10:27;;;;;;;;;;;17.80;99.90;;;;;;5083505;28;20170;-69
2022/07/10 12:12:54;;;;;;;;;;;17.90;99.90;;;;;;5094120;28;19979;-70
2022/07/10 12:15:33;;;;;;;;;;;18.10;99.90;;;;;;5094687;28;19979;-72
2022/07/10 12:18:00;;;;;;;;;;;18.30;99.90;;;;;;5080284;28;19928;-69
2022/07/10 12:20:27;;;;;;;;;;;18.20;99.90;;;;;;5081701;28;19925;-68
2022/07/10 12:22:55;;;;;;;;;;;18.20;99.90;;;;;;5095535;28;20268;-70
2022/07/10 12:25:22;;;;;;;;;;;18.10;99.90;;;;;;5103311;28;19920;-70
2022/07/10 12:27:49;;;;;;;;;;;18.10;99.90;;;;;;5100081;28;19974;-70
2022/07/10 12:30:15;;;;;;;;;;;18.00;99.90;;;;;;5082698;28;19935;-69
2022/07/10 12:32:42;;;;;;;;;;;18.00;99.90;;;;;;5081896;28;19958;-69
2022/07/10 12:35:14;;;;;;;;;;;18.00;99.90;;;;;;5083971;28;19960;-70
2022/07/10 12:37:48;;;;;;;;;;;17.80;99.90;;;;;;5083211;28;19980;-71
2022/07/10 12:40:30;;;;;;;;;;;17.70;99.90;;;;;;5083909;28;19984;-70
2022/07/10 12:43:03;;;;;;;;;;;17.80;99.90;;;;;;5080596;28;19956;-70
2022/07/10 12:45:30;;;;;;;;;;;17.90;99.90;;;;;;5083250;28;19928;-68
2022/07/10 12:47:57;;;;;;;;;;;18.00;99.90;;;;;;5083786;28;19928;-70
2022/07/10 12:50:25;;;;;;;;;;;18.10;99.90;;;;;;5082152;28;19921;-71
2022/07/10 12:53:06;;;;;;;;;;;18.10;99.90;;;;;;5062215;28;19956;-70
2022/07/10 12:55:35;;;;;;;;;;;18.20;99.90;;;;;;5064248;28;20050;-69
2022/07/10 12:58:08;;;;;;;;;;;18.20;99.90;;;;;;5064189;28;20127;-70
2022/07/10 13:00:36;;;;;;;;;;;18.30;99.90;;;;;;5065638;28;19920;-69
2022/07/10 13:03:04;;;;;;;;;;;18.30;99.90;;;;;;5065036;28;19984;-69
2022/07/10 13:05:32;;;;;;;;;;;18.50;99.90;;;;;;5064214;28;19956;-69
2022/07/10 13:08:10;;;;;;;;;;;18.70;99.90;;;;;;5063889;28;19927;-68
2022/07/10 13:10:36;;;;;;;;;;;18.80;99.90;;;;;;5063398;28;19966;-69
2022/07/10 13:13:03;;;;;;;;;;;18.90;99.90;;;;;;5062854;28;19921;-70
2022/07/10 13:15:31;;;;;;;;;;;18.80;99.90;;;;;;5063655;28;20018;-70
2022/07/10 13:17:58;;;;;;;;;;;18.90;99.90;;;;;;5063388;28;19966;-70
2022/07/10 13:20:25;;;;;;;;;;;18.90;99.90;;;;;;5076862;28;19928;-70
2022/07/10 13:22:51;;;;;;;;;;;19.00;99.90;;;;;;5079436;28;19977;-71
2022/07/10 13:25:18;;;;;;;;;;;19.40;99.90;;;;;;5080572;28;19958;-71
2022/07/10 13:27:45;;;;;;;;;;;19.80;99.90;;;;;;5082959;28;19956;-71
2022/07/10 13:30:12;;;;;;;;;;;20.00;99.90;;;;;;5082455;28;19921;-71
2022/07/10 13:32:40;;;;;;;;;;;20.00;99.90;;;;;;5081238;28;19926;-70
2022/07/10 13:35:06;;;;;;;;;;;20.20;99.90;;;;;;5082581;28;19920;-70
2022/07/10 13:37:33;;;;;;;;;;;20.30;99.90;;;;;;5083246;28;19955;-70
2022/07/10 13:40:00;;;;;;;;;;;20.30;99.90;;;;;;5082836;28;19937;-71
2022/07/10 13:42:26;;;;;;;;;;;20.30;99.90;;;;;;5075482;28;19988;-71
2022/07/10 13:44:55;;;;;;;;;;;20.30;99.90;;;;;;5061846;28;19921;-71
2022/07/10 13:47:21;;;;;;;;;;;20.00;99.90;;;;;;5063313;28;19952;-71
2022/07/10 13:49:49;;;;;;;;;;;20.10;99.90;;;;;;5062998;28;19921;-71
2022/07/10 13:52:16;;;;;;;;;;;20.00;99.90;;;;;;5062446;28;19927;-71
2022/07/10 13:54:43;;;;;;;;;;;20.00;99.90;;;;;;5072434;28;19956;-71
2022/07/10 13:57:09;;;;;;;;;;;20.00;99.90;;;;;;5082936;28;20239;-71
2022/07/10 13:59:36;;;;;;;;;;;19.70;99.90;;;;;;5082945;28;20180;-71
2022/07/10 14:02:03;;;;;;;;;;;19.70;99.90;;;;;;5082048;28;19934;-71
2022/07/10 14:04:29;;;;;;;;;;;19.80;99.90;;;;;;5082457;28;19927;-71
2022/07/10 14:06:57;;;;;;;;;;;20.00;99.90;;;;;;5083027;28;19920;-71
2022/07/10 14:09:24;;;;;;;;;;;20.30;99.90;;;;;;5082901;28;20119;-71
2022/07/10 14:11:51;;;;;;;;;;;20.60;99.90;;;;;;5082717;28;19921;-71
2022/07/10 14:14:18;;;;;;;;;;;20.70;99.20;;;;;;5082216;28;19983;-71
2022/07/10 14:16:44;;;;;;;;;;;20.50;99.90;;;;;;5082280;28;19920;-71
2022/07/10 14:19:11;;;;;;;;;;;20.30;99.90;;;;;;5083014;28;19927;-71
2022/07/10 14:21:38;;;;;;;;;;;20.20;99.90;;;;;;5084938;28;19978;-71
2022/07/10 14:24:07;;;;;;;;;;;20.50;99.90;;;;;;5085851;28;19995;-71
2022/07/10 14:26:35;;;;;;;;;;;20.90;99.80;;;;;;5086370;28;19943;-71
2022/07/10 14:29:01;;;;;;;;;;;21.20;99.30;;;;;;5070027;28;19966;-71
2022/07/10 14:31:28;;;;;;;;;;;21.60;99.30;;;;;;5070475;28;19933;-71
2022/07/10 14:33:55;;;;;;;;;;;21.80;98.40;;;;;;5085606;28;20000;-71